createdAt,value
2018-05-02T00:00:56.629Z,0
2018-05-02T00:02:05.732Z,0
2018-05-02T00:03:14.565Z,0
2018-05-02T00:04:23.385Z,0
2018-05-02T00:05:32.216Z,0
2018-05-02T00:06:41.044Z,0
2018-05-02T00:07:50.176Z,0
2018-05-02T00:08:59.008Z,0
2018-05-02T00:10:07.838Z,0
2018-05-02T00:11:16.671Z,0
2018-05-02T00:12:25.501Z,0
2018-05-02T00:13:34.898Z,0
2018-05-02T00:14:43.998Z,0
2018-05-02T00:15:52.831Z,0
2018-05-02T00:17:01.931Z,0
2018-05-02T00:18:11.395Z,0
2018-05-02T00:19:20.677Z,0
2018-05-02T00:20:29.502Z,0
2018-05-02T00:21:38.624Z,0
2018-05-02T00:22:47.451Z,0
2018-05-02T00:23:56.280Z,0
2018-05-02T00:25:05.109Z,0
2018-05-02T00:26:13.937Z,0
2018-05-02T00:27:22.763Z,0
2018-05-02T00:28:31.596Z,0
2018-05-02T00:29:40.701Z,0
2018-05-02T00:30:49.776Z,0
2018-05-02T00:31:58.604Z,0
2018-05-02T00:33:07.431Z,0
2018-05-02T00:34:16.257Z,0
2018-05-02T00:35:25.371Z,0
2018-05-02T00:36:34.194Z,0
2018-05-02T00:37:43.020Z,0
2018-05-02T00:38:51.846Z,0
2018-05-02T00:40:00.671Z,0
2018-05-02T00:41:09.501Z,0
2018-05-02T00:42:18.375Z,0
2018-05-02T00:43:27.204Z,0
2018-05-02T00:44:36.316Z,0
2018-05-02T00:45:45.142Z,0
2018-05-02T00:46:53.973Z,0
2018-05-02T00:48:02.947Z,0
2018-05-02T00:49:11.773Z,0
2018-05-02T00:50:20.600Z,0
2018-05-02T00:51:29.426Z,0
2018-05-02T00:52:38.526Z,0
2018-05-02T00:53:47.553Z,0
2018-05-02T00:54:56.384Z,0
2018-05-02T00:56:05.207Z,0
2018-05-02T00:57:14.035Z,0
2018-05-02T00:58:22.862Z,0
2018-05-02T00:59:31.746Z,0
2018-05-02T01:00:40.850Z,0
2018-05-02T01:01:49.673Z,0
2018-05-02T01:02:58.499Z,0
2018-05-02T01:04:07.327Z,0
2018-05-02T01:05:16.305Z,0
2018-05-02T01:06:25.134Z,0
2018-05-02T01:07:33.963Z,0
2018-05-02T01:08:42.792Z,0
2018-05-02T01:09:51.617Z,0
2018-05-02T01:11:01.147Z,0
2018-05-02T01:12:10.250Z,0
2018-05-02T01:13:19.077Z,0
2018-05-02T01:14:28.177Z,0
2018-05-02T01:15:37.277Z,0
2018-05-02T01:16:46.111Z,0
2018-05-02T01:17:54.940Z,0
2018-05-02T01:19:03.765Z,0
2018-05-02T01:20:12.602Z,0
2018-05-02T01:21:21.700Z,0
2018-05-02T01:22:30.824Z,0
2018-05-02T01:23:39.652Z,0
2018-05-02T01:24:48.475Z,0
2018-05-02T01:25:57.305Z,0
2018-05-02T01:27:06.128Z,0
2018-05-02T01:28:15.281Z,0
2018-05-02T01:29:24.110Z,0
2018-05-02T01:30:32.948Z,0
2018-05-02T01:31:41.777Z,0
2018-05-02T01:32:50.604Z,0
2018-05-02T01:33:59.481Z,0
2018-05-02T01:35:08.308Z,0
2018-05-02T01:36:17.133Z,0
2018-05-02T01:37:26.235Z,0
2018-05-02T01:38:35.062Z,0
2018-05-02T01:39:43.988Z,0
2018-05-02T01:40:52.818Z,0
2018-05-02T01:42:01.643Z,0
2018-05-02T01:43:10.743Z,0
2018-05-02T01:44:19.567Z,0
2018-05-02T01:45:28.767Z,0
2018-05-02T01:46:37.592Z,0
2018-05-02T01:47:46.419Z,0
2018-05-02T01:48:55.247Z,0
2018-05-02T01:50:04.072Z,0
2018-05-02T01:51:13.324Z,0
2018-05-02T01:52:22.150Z,0
2018-05-02T01:53:30.976Z,0
2018-05-02T01:54:39.804Z,0
2018-05-02T01:55:48.629Z,0
2018-05-02T01:56:57.884Z,0
2018-05-02T01:58:06.713Z,0
2018-05-02T01:59:15.537Z,0
2018-05-02T02:00:24.367Z,0
2018-05-02T02:01:33.198Z,0
2018-05-02T02:02:42.075Z,0
2018-05-02T02:03:50.902Z,0
2018-05-02T02:05:00.011Z,0
2018-05-02T02:06:09.395Z,0
2018-05-02T02:07:18.223Z,0
2018-05-02T02:08:27.202Z,0
2018-05-02T02:09:36.577Z,0
2018-05-02T02:10:45.400Z,0
2018-05-02T02:11:54.503Z,0
2018-05-02T02:13:03.334Z,0
2018-05-02T02:14:12.485Z,0
2018-05-02T02:15:21.309Z,0
2018-05-02T02:16:30.140Z,0
2018-05-02T02:17:38.968Z,0
2018-05-02T02:18:47.793Z,0
2018-05-02T02:19:56.670Z,0
2018-05-02T02:21:05.503Z,0
2018-05-02T02:22:14.329Z,0
2018-05-02T02:23:23.163Z,0
2018-05-02T02:24:32.263Z,0
2018-05-02T02:25:41.090Z,0
2018-05-02T02:26:50.192Z,0
2018-05-02T02:27:59.294Z,0
2018-05-02T02:29:08.398Z,0
2018-05-02T02:30:17.243Z,0
2018-05-02T02:31:27.190Z,0
2018-05-02T02:32:36.304Z,0
2018-05-02T02:33:45.425Z,0
2018-05-02T02:34:54.249Z,0
2018-05-02T02:36:03.078Z,0
2018-05-02T02:37:12.278Z,0
2018-05-02T02:38:21.110Z,0
2018-05-02T02:39:30.492Z,0
2018-05-02T02:40:39.875Z,0
2018-05-02T02:41:48.703Z,0
2018-05-02T02:42:58.211Z,0
2018-05-02T02:44:07.325Z,0
2018-05-02T02:45:16.172Z,0
2018-05-02T02:46:25.558Z,0
2018-05-02T02:47:34.398Z,0
2018-05-02T02:48:43.706Z,0
2018-05-02T02:49:52.827Z,0
2018-05-02T02:51:01.663Z,0
2018-05-02T02:52:11.311Z,0
2018-05-02T02:53:20.686Z,0
2018-05-02T02:54:29.890Z,0
2018-05-02T02:55:38.721Z,0
2018-05-02T02:56:47.547Z,0
2018-05-02T02:57:56.657Z,0
2018-05-02T02:59:05.485Z,0
2018-05-02T03:00:14.465Z,0
2018-05-02T03:01:23.578Z,0
2018-05-02T03:02:32.692Z,0
2018-05-02T03:03:41.798Z,0
2018-05-02T03:04:50.902Z,0
2018-05-02T03:06:00.284Z,0
2018-05-02T03:07:09.389Z,0
2018-05-02T03:08:19.078Z,0
2018-05-02T03:09:27.907Z,0
2018-05-02T03:10:37.065Z,0
2018-05-02T03:11:46.584Z,0
2018-05-02T03:12:55.414Z,0
2018-05-02T03:14:04.518Z,0
2018-05-02T03:15:13.630Z,0
2018-05-02T03:16:22.460Z,0
2018-05-02T03:17:31.689Z,4
2018-05-02T03:18:40.518Z,4
2018-05-02T03:19:49.345Z,0
2018-05-02T03:20:58.170Z,0
2018-05-02T03:22:07.279Z,4
2018-05-02T03:23:16.406Z,4
2018-05-02T03:24:25.508Z,4
2018-05-02T03:25:34.335Z,4
2018-05-02T03:26:43.162Z,8
2018-05-02T03:27:52.269Z,8
2018-05-02T03:29:01.649Z,8
2018-05-02T03:30:10.478Z,12
2018-05-02T03:31:19.926Z,12
2018-05-02T03:32:28.755Z,16
2018-05-02T03:33:37.878Z,16
2018-05-02T03:34:46.804Z,20
2018-05-02T03:35:55.629Z,20
2018-05-02T03:37:04.462Z,24
2018-05-02T03:38:13.285Z,28
2018-05-02T03:39:22.385Z,32
2018-05-02T03:40:31.211Z,40
2018-05-02T03:41:40.037Z,40
2018-05-02T03:42:48.864Z,48
2018-05-02T03:43:57.695Z,52
2018-05-02T03:45:06.802Z,60
2018-05-02T03:46:16.055Z,68
2018-05-02T03:47:24.881Z,72
2018-05-02T03:48:33.710Z,84
2018-05-02T03:49:42.538Z,92
2018-05-02T03:50:51.367Z,104
2018-05-02T03:52:00.625Z,112
2018-05-02T03:53:09.881Z,124
2018-05-02T03:54:18.714Z,136
2018-05-02T03:55:27.535Z,148
2018-05-02T03:56:36.365Z,160
2018-05-02T03:57:45.343Z,176
2018-05-02T03:58:54.172Z,188
2018-05-02T04:00:03.007Z,204
2018-05-02T04:01:11.828Z,220
2018-05-02T04:02:20.942Z,232
2018-05-02T04:03:30.021Z,248
2018-05-02T04:04:38.847Z,264
2018-05-02T04:05:47.676Z,284
2018-05-02T04:06:56.501Z,300
2018-05-02T04:08:05.330Z,316
2018-05-02T04:09:14.311Z,336
2018-05-02T04:10:23.139Z,352
2018-05-02T04:11:31.965Z,372
2018-05-02T04:12:40.791Z,392
2018-05-02T04:13:49.897Z,408
2018-05-02T04:14:58.874Z,428
2018-05-02T04:16:07.704Z,448
2018-05-02T04:17:16.538Z,464
2018-05-02T04:18:25.651Z,484
2018-05-02T04:19:34.482Z,504
2018-05-02T04:20:43.409Z,524
2018-05-02T04:21:52.511Z,544
2018-05-02T04:23:01.338Z,560
2018-05-02T04:24:10.168Z,580
2018-05-02T04:25:19.003Z,596
2018-05-02T04:26:28.187Z,620
2018-05-02T04:27:36.979Z,636
2018-05-02T04:28:46.081Z,656
2018-05-02T04:29:55.181Z,676
2018-05-02T04:31:04.008Z,692
2018-05-02T04:32:12.936Z,712
2018-05-02T04:33:21.764Z,732
2018-05-02T04:34:30.593Z,752
2018-05-02T04:35:39.709Z,772
2018-05-02T04:36:48.537Z,788
2018-05-02T04:37:57.461Z,808
2018-05-02T04:39:06.292Z,828
2018-05-02T04:40:15.116Z,840
2018-05-02T04:41:23.951Z,856
2018-05-02T04:42:32.774Z,876
2018-05-02T04:43:41.853Z,896
2018-05-02T04:44:50.680Z,908
2018-05-02T04:45:59.508Z,924
2018-05-02T04:47:08.333Z,940
2018-05-02T04:48:17.161Z,956
2018-05-02T04:49:26.544Z,972
2018-05-02T04:50:35.374Z,988
2018-05-02T04:51:44.479Z,1000
2018-05-02T04:52:53.779Z,1016
2018-05-02T04:54:03.258Z,1032
2018-05-02T04:55:12.137Z,1048
2018-05-02T04:56:21.280Z,1060
2018-05-02T04:57:30.384Z,1072
2018-05-02T04:58:39.210Z,1088
2018-05-02T04:59:48.038Z,1100
2018-05-02T05:00:57.444Z,1112
2018-05-02T05:02:06.273Z,1128
2018-05-02T05:03:15.097Z,1140
2018-05-02T05:04:23.925Z,1152
2018-05-02T05:05:32.751Z,1164
2018-05-02T05:06:42.003Z,1176
2018-05-02T05:07:50.749Z,1188
2018-05-02T05:08:59.852Z,1196
2018-05-02T05:10:08.694Z,1208
2018-05-02T05:11:17.797Z,1216
2018-05-02T05:12:27.338Z,1228
2018-05-02T05:13:36.166Z,1240
2018-05-02T05:14:44.999Z,1248
2018-05-02T05:15:53.825Z,1260
2018-05-02T05:17:02.654Z,1272
2018-05-02T05:18:12.137Z,1280
2018-05-02T05:19:21.154Z,1288
2018-05-02T05:20:30.787Z,1304
2018-05-02T05:21:40.389Z,1308
2018-05-02T05:22:49.224Z,1320
2018-05-02T05:23:58.054Z,1328
2018-05-02T05:25:06.883Z,1336
2018-05-02T05:26:15.985Z,1340
2018-05-02T05:27:25.088Z,1352
2018-05-02T05:28:33.918Z,1360
2018-05-02T05:29:43.024Z,1368
2018-05-02T05:30:51.853Z,1380
2018-05-02T05:32:00.682Z,1384
2018-05-02T05:33:09.511Z,1392
2018-05-02T05:34:19.020Z,1396
2018-05-02T05:35:28.147Z,1408
2018-05-02T05:36:36.975Z,1412
2018-05-02T05:37:45.802Z,1424
2018-05-02T05:38:54.910Z,1432
2018-05-02T05:40:03.738Z,1436
2018-05-02T05:41:12.567Z,1444
2018-05-02T05:42:21.395Z,1448
2018-05-02T05:43:30.256Z,1456
2018-05-02T05:44:39.337Z,1460
2018-05-02T05:45:48.168Z,1468
2018-05-02T05:46:56.996Z,1476
2018-05-02T05:48:05.830Z,1484
2018-05-02T05:49:15.038Z,1492
2018-05-02T05:50:23.865Z,1496
2018-05-02T05:51:32.695Z,1500
2018-05-02T05:52:41.525Z,1512
2018-05-02T05:53:50.909Z,1524
2018-05-02T05:55:00.511Z,1528
2018-05-02T05:56:09.623Z,1540
2018-05-02T05:57:18.450Z,1544
2018-05-02T05:58:27.587Z,1548
2018-05-02T05:59:36.380Z,1556
2018-05-02T06:00:45.381Z,1560
2018-05-02T06:01:54.840Z,1568
2018-05-02T06:03:03.946Z,1572
2018-05-02T06:04:13.055Z,1580
2018-05-02T06:05:21.883Z,1584
2018-05-02T06:06:30.861Z,1588
2018-05-02T06:07:39.691Z,1592
2018-05-02T06:08:48.523Z,1596
2018-05-02T06:09:57.639Z,1604
2018-05-02T06:11:06.749Z,1608
2018-05-02T06:12:16.110Z,1612
2018-05-02T06:13:24.936Z,1612
2018-05-02T06:14:33.767Z,1620
2018-05-02T06:15:42.876Z,1620
2018-05-02T06:16:51.979Z,1624
2018-05-02T06:18:00.960Z,1632
2018-05-02T06:19:10.068Z,1640
2018-05-02T06:20:18.897Z,1648
2018-05-02T06:21:27.746Z,1656
2018-05-02T06:22:36.573Z,1660
2018-05-02T06:23:45.452Z,1668
2018-05-02T06:24:54.283Z,1672
2018-05-02T06:26:03.117Z,1676
2018-05-02T06:27:11.950Z,1676
2018-05-02T06:28:20.788Z,1680
2018-05-02T06:29:29.961Z,1684
2018-05-02T06:30:39.076Z,1692
2018-05-02T06:31:48.734Z,1688
2018-05-02T06:32:58.232Z,1696
2018-05-02T06:34:07.337Z,1696
2018-05-02T06:35:16.630Z,1704
2018-05-02T06:36:25.737Z,1704
2018-05-02T06:37:34.651Z,1704
2018-05-02T06:38:43.790Z,1704
2018-05-02T06:39:52.621Z,1704
2018-05-02T06:41:01.779Z,1708
2018-05-02T06:42:10.890Z,1704
2018-05-02T06:43:19.993Z,1708
2018-05-02T06:44:28.821Z,1708
2018-05-02T06:45:37.933Z,1704
2018-05-02T06:46:46.866Z,1708
2018-05-02T06:47:55.695Z,1708
2018-05-02T06:49:04.802Z,1720
2018-05-02T06:50:13.665Z,1716
2018-05-02T06:51:23.054Z,1720
2018-05-02T06:52:32.140Z,1720
2018-05-02T06:53:40.964Z,1724
2018-05-02T06:54:49.795Z,1724
2018-05-02T06:55:58.623Z,1728
2018-05-02T06:57:07.455Z,1732
2018-05-02T06:58:16.436Z,1740
2018-05-02T06:59:25.567Z,1740
2018-05-02T07:00:34.654Z,1744
2018-05-02T07:01:43.764Z,1748
2018-05-02T07:02:52.594Z,1756
2018-05-02T07:04:01.479Z,1756
2018-05-02T07:05:10.311Z,1768
2018-05-02T07:06:19.142Z,1776
2018-05-02T07:07:28.250Z,1780
2018-05-02T07:08:37.080Z,1784
2018-05-02T07:09:46.237Z,1788
2018-05-02T07:10:55.066Z,1788
2018-05-02T07:12:04.175Z,1800
2018-05-02T07:13:13.007Z,1796
2018-05-02T07:14:22.126Z,1804
2018-05-02T07:15:31.058Z,1804
2018-05-02T07:16:39.887Z,1808
2018-05-02T07:17:48.719Z,1808
2018-05-02T07:18:57.549Z,1812
2018-05-02T07:20:06.670Z,1816
2018-05-02T07:21:15.776Z,1820
2018-05-02T07:22:24.609Z,1828
2018-05-02T07:23:33.442Z,1832
2018-05-02T07:24:42.548Z,1832
2018-05-02T07:25:51.380Z,1840
2018-05-02T07:27:00.361Z,1840
2018-05-02T07:28:09.247Z,1844
2018-05-02T07:29:18.022Z,1848
2018-05-02T07:30:26.854Z,1852
2018-05-02T07:31:35.687Z,1860
2018-05-02T07:32:45.363Z,1864
2018-05-02T07:33:54.530Z,1868
2018-05-02T07:35:03.364Z,1872
2018-05-02T07:36:12.195Z,1876
2018-05-02T07:37:21.308Z,1876
2018-05-02T07:38:30.517Z,1884
2018-05-02T07:39:39.344Z,1884
2018-05-02T07:40:48.176Z,1888
2018-05-02T07:41:57.009Z,1896
2018-05-02T07:43:05.843Z,1896
2018-05-02T07:44:14.951Z,1904
2018-05-02T07:45:23.764Z,1912
2018-05-02T07:46:32.872Z,1912
2018-05-02T07:47:41.756Z,1928
2018-05-02T07:48:50.588Z,1932
2018-05-02T07:49:59.526Z,1932
2018-05-02T07:51:08.362Z,1932
2018-05-02T07:52:17.192Z,1936
2018-05-02T07:53:26.025Z,1948
2018-05-02T07:54:35.139Z,1956
2018-05-02T07:55:44.348Z,1964
2018-05-02T07:56:53.182Z,1968
2018-05-02T07:58:02.053Z,1976
2018-05-02T07:59:11.518Z,1976
2018-05-02T08:00:20.905Z,1988
2018-05-02T08:01:30.207Z,1992
2018-05-02T08:02:39.318Z,2008
2018-05-02T08:03:48.148Z,2008
2018-05-02T08:04:56.979Z,2020
2018-05-02T08:06:06.096Z,2028
2018-05-02T08:07:15.128Z,2044
2018-05-02T08:08:24.240Z,2044
2018-05-02T08:09:33.074Z,2044
2018-05-02T08:10:42.460Z,2052
2018-05-02T08:11:51.293Z,2056
2018-05-02T08:13:00.654Z,2060
2018-05-02T08:14:09.769Z,2072
2018-05-02T08:15:18.876Z,2092
2018-05-02T08:16:28.432Z,2088
2018-05-02T08:17:38.216Z,2096
2018-05-02T08:18:47.451Z,2108
2018-05-02T08:19:56.564Z,2112
2018-05-02T08:21:05.399Z,2124
2018-05-02T08:22:14.235Z,2132
2018-05-02T08:23:23.068Z,2144
2018-05-02T08:24:32.102Z,2144
2018-05-02T08:25:40.937Z,2148
2018-05-02T08:26:50.052Z,2152
2018-05-02T08:27:58.884Z,2172
2018-05-02T08:29:07.715Z,2184
2018-05-02T08:30:16.649Z,2188
2018-05-02T08:31:25.484Z,2208
2018-05-02T08:32:34.320Z,2236
2018-05-02T08:33:43.155Z,2232
2018-05-02T08:34:51.997Z,2240
2018-05-02T08:36:01.158Z,2260
2018-05-02T08:37:09.995Z,2264
2018-05-02T08:38:18.900Z,2292
2018-05-02T08:39:27.657Z,2304
2018-05-02T08:40:36.491Z,2308
2018-05-02T08:41:45.697Z,2312
2018-05-02T08:42:54.533Z,2300
2018-05-02T08:44:03.364Z,2300
2018-05-02T08:45:12.197Z,2312
2018-05-02T08:46:21.033Z,2304
2018-05-02T08:47:29.970Z,2308
2018-05-02T08:48:39.360Z,2328
2018-05-02T08:49:48.524Z,2328
2018-05-02T08:50:57.308Z,2328
2018-05-02T08:52:06.144Z,2336
2018-05-02T08:53:15.032Z,2340
2018-05-02T08:54:23.865Z,2348
2018-05-02T08:55:32.700Z,2452
2018-05-02T08:56:41.540Z,2676
2018-05-02T08:57:50.375Z,3144
2018-05-02T08:58:59.211Z,3512
2018-05-02T09:00:08.324Z,4240
2018-05-02T09:01:17.162Z,4188
2018-05-02T09:02:25.993Z,3144
2018-05-02T09:03:34.828Z,2956
2018-05-02T09:04:44.248Z,4072
2018-05-02T09:05:53.082Z,4440
2018-05-02T09:07:02.194Z,3444
2018-05-02T09:08:11.027Z,3560
2018-05-02T09:09:19.859Z,4120
2018-05-02T09:10:28.745Z,3768
2018-05-02T09:11:37.578Z,3140
2018-05-02T09:12:46.413Z,4288
2018-05-02T09:13:55.247Z,4828
2018-05-02T09:15:04.085Z,3968
2018-05-02T09:16:13.318Z,3812
2018-05-02T09:17:22.158Z,4120
2018-05-02T09:18:31.269Z,3780
2018-05-02T09:19:40.104Z,3764
2018-05-02T09:20:48.939Z,3240
2018-05-02T09:21:57.982Z,3128
2018-05-02T09:23:06.817Z,3572
2018-05-02T09:24:15.933Z,3944
2018-05-02T09:25:25.047Z,5000
2018-05-02T09:26:33.875Z,5556
2018-05-02T09:27:42.859Z,5844
2018-05-02T09:28:51.971Z,6664
2018-05-02T09:30:00.806Z,6652
2018-05-02T09:31:09.920Z,5500
2018-05-02T09:32:18.761Z,3856
2018-05-02T09:33:27.692Z,3524
2018-05-02T09:34:36.528Z,4012
2018-05-02T09:35:45.395Z,4428
2018-05-02T09:36:54.200Z,5468
2018-05-02T09:38:03.316Z,8488
2018-05-02T09:39:12.577Z,10372
2018-05-02T09:40:21.418Z,9072
2018-05-02T09:41:30.256Z,7864
2018-05-02T09:42:39.090Z,7532
2018-05-02T09:43:48.204Z,6716
2018-05-02T09:44:57.463Z,6888
2018-05-02T09:46:06.574Z,8380
2018-05-02T09:47:15.411Z,7788
2018-05-02T09:48:24.523Z,7364
2018-05-02T09:49:33.361Z,7116
2018-05-02T09:50:42.246Z,5664
2018-05-02T09:51:51.083Z,3888
2018-05-02T09:53:00.471Z,3560
2018-05-02T09:54:09.310Z,4008
2018-05-02T09:55:18.147Z,4692
2018-05-02T09:56:27.182Z,5216
2018-05-02T09:57:36.294Z,5168
2018-05-02T09:58:45.131Z,4652
2018-05-02T09:59:53.970Z,4436
2018-05-02T10:01:02.803Z,4924
2018-05-02T10:02:11.645Z,6280
2018-05-02T10:03:20.484Z,7636
2018-05-02T10:04:29.374Z,7428
2018-05-02T10:05:38.494Z,6448
2018-05-02T10:06:47.329Z,6744
2018-05-02T10:07:56.414Z,6728
2018-05-02T10:09:05.254Z,6488
2018-05-02T10:10:14.087Z,7048
2018-05-02T10:11:22.924Z,8460
2018-05-02T10:12:32.509Z,8520
2018-05-02T10:13:42.104Z,9336
2018-05-02T10:14:50.942Z,9152
2018-05-02T10:15:59.777Z,7312
2018-05-02T10:17:08.616Z,5936
2018-05-02T10:18:17.453Z,4640
2018-05-02T10:19:26.339Z,3928
2018-05-02T10:20:35.174Z,3936
2018-05-02T10:21:44.012Z,4020
2018-05-02T10:22:53.130Z,4036
2018-05-02T10:24:02.250Z,4016
2018-05-02T10:25:11.137Z,3964
2018-05-02T10:26:20.062Z,3900
2018-05-02T10:27:28.813Z,3976
2018-05-02T10:28:37.649Z,4156
2018-05-02T10:29:46.485Z,4656
2018-05-02T10:30:55.473Z,4912
2018-05-02T10:32:04.592Z,5560
2018-05-02T10:33:13.426Z,5096
2018-05-02T10:34:22.265Z,4456
2018-05-02T10:35:31.101Z,4468
2018-05-02T10:36:40.038Z,5056
2018-05-02T10:37:49.419Z,5424
2018-05-02T10:38:58.256Z,5504
2018-05-02T10:40:07.096Z,4940
2018-05-02T10:41:16.213Z,4412
2018-05-02T10:42:25.251Z,4396
2018-05-02T10:43:34.088Z,4316
2018-05-02T10:44:42.924Z,4624
2018-05-02T10:45:51.761Z,4708
2018-05-02T10:47:00.597Z,4904
2018-05-02T10:48:09.684Z,4872
2018-05-02T10:49:18.796Z,4996
2018-05-02T10:50:27.677Z,5160
2018-05-02T10:51:36.472Z,5224
2018-05-02T10:52:45.308Z,5212
2018-05-02T10:53:54.244Z,5116
2018-05-02T10:55:03.083Z,5036
2018-05-02T10:56:11.919Z,4852
2018-05-02T10:57:20.754Z,4740
2018-05-02T10:58:29.590Z,4928
2018-05-02T10:59:38.529Z,5372
2018-05-02T11:00:47.640Z,5424
2018-05-02T11:01:56.481Z,5728
2018-05-02T11:03:05.318Z,5916
2018-05-02T11:04:14.157Z,5900
2018-05-02T11:05:23.372Z,5948
2018-05-02T11:06:32.207Z,6024
2018-05-02T11:07:41.042Z,6304
2018-05-02T11:08:49.881Z,6024
2018-05-02T11:09:59.006Z,5628
2018-05-02T11:11:07.979Z,5944
2018-05-02T11:12:16.816Z,5848
2018-05-02T11:13:25.653Z,6292
2018-05-02T11:14:34.492Z,6056
2018-05-02T11:15:43.606Z,6444
2018-05-02T11:16:52.761Z,6528
2018-05-02T11:18:01.604Z,6184
2018-05-02T11:19:10.434Z,5808
2018-05-02T11:20:19.831Z,5376
2018-05-02T11:21:28.669Z,5232
2018-05-02T11:22:37.508Z,5192
2018-05-02T11:23:46.341Z,4872
2018-05-02T11:24:55.459Z,4628
2018-05-02T11:26:04.295Z,4556
2018-05-02T11:27:13.132Z,4520
2018-05-02T11:28:22.267Z,4492
2018-05-02T11:29:31.075Z,4544
2018-05-02T11:30:40.185Z,4572
2018-05-02T11:31:49.028Z,4632
2018-05-02T11:32:57.876Z,4684
2018-05-02T11:34:06.704Z,4768
2018-05-02T11:35:15.540Z,4864
2018-05-02T11:36:24.654Z,4896
2018-05-02T11:37:33.492Z,4924
2018-05-02T11:38:42.329Z,4944
2018-05-02T11:39:51.576Z,5004
2018-05-02T11:41:00.416Z,5096
2018-05-02T11:42:09.251Z,5132
2018-05-02T11:43:18.088Z,5172
2018-05-02T11:44:26.926Z,5252
2018-05-02T11:45:36.135Z,5388
2018-05-02T11:46:44.977Z,5556
2018-05-02T11:47:53.812Z,5756
2018-05-02T11:49:02.649Z,6000
2018-05-02T11:50:11.486Z,6284
2018-05-02T11:51:20.724Z,6592
2018-05-02T11:52:29.836Z,7280
2018-05-02T11:53:38.674Z,10220
2018-05-02T11:54:47.792Z,13032
2018-05-02T11:55:57.188Z,17216
2018-05-02T11:57:06.330Z,51328
2018-05-02T11:58:15.168Z,67392
2018-05-02T11:59:24.008Z,69440
2018-05-02T12:00:33.122Z,70208
2018-05-02T12:01:41.964Z,67776
2018-05-02T12:02:50.960Z,69504
2018-05-02T12:03:59.808Z,70432
2018-05-02T12:05:08.653Z,70976
2018-05-02T12:06:17.500Z,68768
2018-05-02T12:07:26.343Z,66368
2018-05-02T12:08:35.188Z,70336
2018-05-02T12:09:44.030Z,74720
2018-05-02T12:10:53.147Z,71776
2018-05-02T12:12:01.989Z,71904
2018-05-02T12:13:11.109Z,74976
2018-05-02T12:14:19.955Z,70784
2018-05-02T12:15:28.801Z,74656
2018-05-02T12:16:37.651Z,77088
2018-05-02T12:17:46.495Z,71200
2018-05-02T12:18:55.344Z,68736
2018-05-02T12:20:04.520Z,72160
2018-05-02T12:21:13.638Z,42304
2018-05-02T12:22:22.481Z,61184
2018-05-02T12:23:31.326Z,50176
2018-05-02T12:24:40.169Z,67968
2018-05-02T12:25:49.011Z,70752
2018-05-02T12:26:57.856Z,68672
2018-05-02T12:28:06.705Z,48480
2018-05-02T12:29:15.549Z,32352
2018-05-02T12:30:24.672Z,55712
2018-05-02T12:31:33.566Z,69440
2018-05-02T12:32:42.411Z,74016
2018-05-02T12:33:51.259Z,73760
2018-05-02T12:35:00.100Z,72352
2018-05-02T12:36:08.953Z,73088
2018-05-02T12:37:17.943Z,71776
2018-05-02T12:38:26.787Z,69536
2018-05-02T12:39:35.633Z,69440
2018-05-02T12:40:44.578Z,77568
2018-05-02T12:41:53.360Z,86272
2018-05-02T12:43:02.505Z,81408
2018-05-02T12:44:11.641Z,77888
2018-05-02T12:45:20.477Z,68416
2018-05-02T12:46:29.602Z,68800
2018-05-02T12:47:38.726Z,77632
2018-05-02T12:48:47.724Z,78144
2018-05-02T12:49:56.571Z,57920
2018-05-02T12:51:05.418Z,61728
2018-05-02T12:52:14.264Z,47680
2018-05-02T12:53:23.112Z,43296
2018-05-02T12:54:32.060Z,38016
2018-05-02T12:55:40.905Z,25440
2018-05-02T12:56:49.752Z,18272
2018-05-02T12:57:58.602Z,45344
2018-05-02T12:59:07.448Z,50080
2018-05-02T13:00:16.496Z,58048
2018-05-02T13:01:25.346Z,61952
2018-05-02T13:02:34.286Z,67904
2018-05-02T13:03:43.158Z,72320
2018-05-02T13:04:52.010Z,76832
2018-05-02T13:06:01.108Z,75104
2018-05-02T13:07:09.988Z,75648
2018-05-02T13:08:18.870Z,72160
2018-05-02T13:09:27.717Z,76864
2018-05-02T13:10:36.840Z,77504
2018-05-02T13:11:45.690Z,79648
2018-05-02T13:12:54.540Z,76288
2018-05-02T13:14:03.953Z,68064
2018-05-02T13:15:13.077Z,63744
2018-05-02T13:16:22.218Z,65056
2018-05-02T13:17:31.269Z,66432
2018-05-02T13:18:40.120Z,70400
2018-05-02T13:19:48.975Z,76064
2018-05-02T13:20:58.376Z,70784
2018-05-02T13:22:07.225Z,71040
2018-05-02T13:23:16.126Z,66560
2018-05-02T13:24:24.978Z,67360
2018-05-02T13:25:33.831Z,72896
2018-05-02T13:26:42.682Z,69376
2018-05-02T13:27:51.535Z,61696
2018-05-02T13:29:00.809Z,75104
2018-05-02T13:30:09.947Z,74240
2018-05-02T13:31:18.798Z,77408
2018-05-02T13:32:27.926Z,72704
2018-05-02T13:33:37.334Z,63104
2018-05-02T13:34:46.936Z,69792
2018-05-02T13:35:55.783Z,54624
2018-05-02T13:37:04.633Z,44672
2018-05-02T13:38:13.484Z,59072
2018-05-02T13:39:22.641Z,69056
2018-05-02T13:40:31.885Z,61152
2018-05-02T13:41:40.734Z,79264
2018-05-02T13:42:49.583Z,39680
2018-05-02T13:43:58.856Z,74112
2018-05-02T13:45:07.990Z,75520
2018-05-02T13:46:16.990Z,67808
2018-05-02T13:47:25.837Z,65536
2018-05-02T13:48:34.686Z,75392
2018-05-02T13:49:43.540Z,74208
2018-05-02T13:50:52.386Z,66560
2018-05-02T13:52:01.334Z,62112
2018-05-02T13:53:10.187Z,79168
2018-05-02T13:54:19.036Z,66496
2018-05-02T13:55:28.179Z,67936
2018-05-02T13:56:37.315Z,64256
2018-05-02T13:57:46.314Z,47520
2018-05-02T13:58:55.167Z,65760
2018-05-02T14:00:04.294Z,54048
2018-05-02T14:01:13.144Z,71360
2018-05-02T14:02:22.274Z,64832
2018-05-02T14:03:31.374Z,60672
2018-05-02T14:04:40.497Z,58368
2018-05-02T14:05:49.345Z,51744
2018-05-02T14:06:58.197Z,67584
2018-05-02T14:08:07.336Z,53728
2018-05-02T14:09:16.231Z,66464
2018-05-02T14:10:25.360Z,66912
2018-05-02T14:11:34.213Z,64224
2018-05-02T14:12:43.615Z,72576
2018-05-02T14:13:52.469Z,68032
2018-05-02T14:15:01.421Z,61088
2018-05-02T14:16:10.273Z,66528
2018-05-02T14:17:19.129Z,62176
2018-05-02T14:18:27.974Z,66112
2018-05-02T14:19:37.096Z,70304
2018-05-02T14:20:46.096Z,47616
2018-05-02T14:21:54.948Z,56384
2018-05-02T14:23:03.802Z,44064
2018-05-02T14:24:12.826Z,69216
2018-05-02T14:25:21.633Z,66016
2018-05-02T14:26:30.486Z,43840
2018-05-02T14:27:39.338Z,63104
2018-05-02T14:28:48.188Z,71040
2018-05-02T14:29:57.043Z,61888
2018-05-02T14:31:06.039Z,53760
2018-05-02T14:32:14.894Z,63776
2018-05-02T14:33:23.743Z,54560
2018-05-02T14:34:32.594Z,58176
2018-05-02T14:35:41.448Z,65152
2018-05-02T14:36:50.295Z,63680
2018-05-02T14:37:59.150Z,48320
2018-05-02T14:39:08.018Z,53952
2018-05-02T14:40:16.870Z,53216
2018-05-02T14:41:25.722Z,53632
2018-05-02T14:42:34.575Z,59456
2018-05-02T14:43:43.428Z,68864
2018-05-02T14:44:52.560Z,59584
2018-05-02T14:46:01.415Z,56896
2018-05-02T14:47:10.543Z,64416
2018-05-02T14:48:19.392Z,41376
2018-05-02T14:49:28.247Z,63840
2018-05-02T14:50:37.099Z,64096
2018-05-02T14:51:46.353Z,62528
2018-05-02T14:52:55.205Z,55872
2018-05-02T14:54:04.056Z,53472
2018-05-02T14:55:12.905Z,58496
2018-05-02T14:56:21.756Z,58272
2018-05-02T14:57:31.032Z,53344
2018-05-02T14:58:39.881Z,50848
2018-05-02T14:59:48.734Z,51424
2018-05-02T15:00:57.588Z,59296
2018-05-02T15:02:06.795Z,64608
2018-05-02T15:03:16.485Z,61664
2018-05-02T15:04:25.891Z,57984
2018-05-02T15:05:34.748Z,55424
2018-05-02T15:06:44.202Z,58944
2018-05-02T15:07:53.055Z,64352
2018-05-02T15:09:02.606Z,67296
2018-05-02T15:10:11.458Z,65824
2018-05-02T15:11:20.584Z,66624
2018-05-02T15:12:29.436Z,67808
2018-05-02T15:13:38.841Z,65408
2018-05-02T15:14:47.843Z,61088
2018-05-02T15:15:56.697Z,65952
2018-05-02T15:17:05.552Z,68320
2018-05-02T15:18:14.687Z,67328
2018-05-02T15:19:23.811Z,53280
2018-05-02T15:20:33.256Z,63168
2018-05-02T15:21:42.103Z,69664
2018-05-02T15:22:51.231Z,63872
2018-05-02T15:24:00.363Z,59328
2018-05-02T15:25:09.221Z,60512
2018-05-02T15:26:18.425Z,51744
2018-05-02T15:27:27.275Z,43808
2018-05-02T15:28:36.400Z,53696
2018-05-02T15:29:45.259Z,54336
2018-05-02T15:30:54.101Z,49472
2018-05-02T15:32:02.952Z,42848
2018-05-02T15:33:11.804Z,46304
2018-05-02T15:34:20.663Z,55488
2018-05-02T15:35:29.515Z,53344